Time;durP1;ratioP1;P1;durP2;ratioP2;P2;SDS_P1;SDS_P2;PMS_P1;PMS_P2;Temp;Humidity;BMP_temperature;BMP_pressure;BME280_temperature;BME280_humidity;BME280_pressure;Samples;Min_cycle;Max_cycle;Signal;HPM_P1;HPM_P2
2023/09/26 03:26:45;;;;;;;14.60;7.90;;;;;;;17.30;94.15;100136.22;106828;1311;544945;-47
2023/09/26 03:29:10;;;;;;;15.10;7.60;;;;;;;17.27;94.93;100136.23;107357;1308;22571;-45
2023/09/26 03:31:39;;;;;;;13.60;8.00;;;;;;;17.27;94.95;100143.52;107346;1294;22321;-44
2023/09/26 03:34:04;;;;;;;10.50;7.80;;;;;;;17.26;95.15;100141.45;107370;1292;22260;-42
2023/09/26 03:36:29;;;;;;;14.70;8.00;;;;;;;17.26;95.25;100141.63;107368;1313;22154;-45
2023/09/26 03:38:55;;;;;;;11.60;7.50;;;;;;;17.25;95.03;100143.24;107371;1294;22262;-47
2023/09/26 03:41:20;;;;;;;13.40;8.70;;;;;;;17.24;95.15;100142.08;107457;1295;132860;-42
2023/09/26 03:43:45;;;;;;;12.10;7.90;;;;;;;17.24;95.59;100144.43;107553;1311;23082;-42
2023/09/26 03:46:10;;;;;;;14.00;7.40;;;;;;;17.22;96.91;100146.80;107569;1311;22263;-45
2023/09/26 03:48:36;;;;;;;13.10;8.60;;;;;;;17.21;96.86;100143.20;107549;1292;22233;-45
2023/09/26 03:51:13;;;;;;;12.30;8.40;;;;;;;17.21;96.76;100140.89;107558;1292;22897;-42
2023/09/26 03:53:39;;;;;;;11.00;8.30;;;;;;;17.21;97.30;100143.75;107562;1292;22266;-46
2023/09/26 03:56:05;;;;;;;13.10;8.40;;;;;;;17.19;98.01;100138.67;107554;1289;22216;-46
2023/09/26 03:58:31;;;;;;;17.60;8.90;;;;;;;17.18;99.32;100133.84;107544;1310;22261;-44
2023/09/26 04:01:16;;;;;;;12.70;9.40;;;;;;;17.17;99.39;100130.55;107672;1310;22211;-46
2023/09/26 04:03:44;;;;;;;13.30;8.70;;;;;;;17.16;99.08;100131.14;107669;1289;22268;-44
2023/09/26 04:06:09;;;;;;;15.50;8.70;;;;;;;17.15;99.52;100130.86;107663;1292;22225;-50
2023/09/26 04:08:35;;;;;;;13.60;8.90;;;;;;;17.14;99.87;100126.73;107668;1292;22212;-45
2023/09/26 04:11:01;;;;;;;13.90;9.00;;;;;;;17.12;99.96;100127.51;107674;1292;22254;-43
2023/09/26 04:13:26;;;;;;;14.00;9.20;;;;;;;17.12;99.75;100127.52;107678;1291;22506;-47
2023/09/26 04:15:52;;;;;;;16.20;9.40;;;;;;;17.12;99.55;100129.83;107675;1291;22398;-47
2023/09/26 04:18:18;;;;;;;12.30;9.40;;;;;;;17.12;100.00;100130.89;107654;1292;22244;-46
2023/09/26 04:20:44;;;;;;;12.90;9.20;;;;;;;17.11;99.85;100134.52;107665;1310;22935;-45
2023/09/26 04:23:09;;;;;;;11.00;8.50;;;;;;;17.10;100.00;100131.04;107669;1310;22857;-47
2023/09/26 04:25:35;;;;;;;19.30;9.20;;;;;;;17.10;99.99;100133.01;107668;1292;22440;-43
2023/09/26 04:28:00;;;;;;;14.10;9.00;;;;;;;17.11;99.97;100131.14;107686;1310;22246;-44
2023/09/26 04:30:26;;;;;;;14.40;9.60;;;;;;;17.11;100.00;100124.77;107666;1310;23086;-45
2023/09/26 04:32:51;;;;;;;11.90;8.60;;;;;;;17.11;100.00;100129.02;107661;1305;22194;-47
2023/09/26 04:35:17;;;;;;;15.30;9.00;;;;;;;17.11;100.00;100124.59;107660;1289;22516;-44
2023/09/26 04:37:42;;;;;;;16.70;9.00;;;;;;;17.11;100.00;100122.30;107593;1310;22995;-48
2023/09/26 04:40:11;;;;;;;13.60;9.60;;;;;;;17.11;100.00;100121.79;107586;1292;22453;-45
2023/09/26 04:42:41;;;;;;;16.60;8.50;;;;;;;17.11;100.00;100120.90;107617;1292;22227;-44
2023/09/26 04:45:07;;;;;;;12.60;8.90;;;;;;;17.12;100.00;100117.48;107587;1292;22222;-42
2023/09/26 04:47:34;;;;;;;19.40;9.70;;;;;;;17.09;99.99;100118.01;107612;1310;23259;-47
2023/09/26 04:49:59;;;;;;;19.40;10.00;;;;;;;17.08;99.99;100118.73;107458;1311;22297;-45
2023/09/26 04:52:24;;;;;;;13.70;9.40;;;;;;;17.10;99.98;100116.72;107587;1292;22238;-47
2023/09/26 04:54:53;;;;;;;14.70;9.30;;;;;;;17.11;100.00;100116.59;107576;1292;22454;-48
2023/09/26 04:57:18;;;;;;;17.50;10.00;;;;;;;17.13;100.00;100115.59;107588;1297;22212;-47
2023/09/26 04:59:43;;;;;;;17.60;9.60;;;;;;;17.14;100.00;100108.61;107559;1292;22312;-48
2023/09/26 05:02:09;;;;;;;22.10;10.20;;;;;;;17.15;100.00;100114.89;107565;1300;22232;-43
2023/09/26 05:04:34;;;;;;;16.90;10.30;;;;;;;17.17;100.00;100116.58;107570;1305;22217;-46
2023/09/26 05:06:59;;;;;;;20.10;10.50;;;;;;;17.17;100.00;100118.31;107594;1288;22480;-46
2023/09/26 05:09:24;;;;;;;23.00;10.80;;;;;;;17.17;100.00;100117.23;107464;1310;22263;-46
2023/09/26 05:11:50;;;;;;;20.00;10.30;;;;;;;17.19;100.00;100114.13;107590;1310;22303;-49
2023/09/26 05:14:15;;;;;;;21.90;11.60;;;;;;;17.20;100.00;100116.68;107586;1298;22239;-43
2023/09/26 05:16:41;;;;;;;15.40;10.10;;;;;;;17.21;100.00;100114.64;107585;1292;22261;-46
2023/09/26 05:19:06;;;;;;;16.80;10.70;;;;;;;17.22;100.00;100113.52;107569;1292;22293;-49
2023/09/26 05:21:31;;;;;;;20.30;11.00;;;;;;;17.23;100.00;100115.94;107582;1311;23217;-48
2023/09/26 05:23:56;;;;;;;18.90;10.00;;;;;;;17.24;100.00;100113.17;107592;1292;22838;-44
2023/09/26 05:26:22;;;;;;;17.60;10.00;;;;;;;17.25;100.00;100115.08;107582;1292;22913;-44
2023/09/26 05:28:47;;;;;;;19.00;10.50;;;;;;;17.26;100.00;100116.96;107573;1292;23003;-47
2023/09/26 05:31:12;;;;;;;21.70;11.10;;;;;;;17.27;100.00;100113.36;107560;1292;22262;-43
2023/09/26 05:33:38;;;;;;;16.70;9.60;;;;;;;17.30;100.00;100117.27;107574;1295;22208;-45
2023/09/26 05:36:04;;;;;;;16.40;10.20;;;;;;;17.31;100.00;100113.31;107595;1292;22421;-47
2023/09/26 05:38:29;;;;;;;16.20;10.30;;;;;;;17.30;100.00;100114.58;107581;1292;22427;-44
2023/09/26 05:40:54;;;;;;;18.00;10.10;;;;;;;17.32;100.00;100116.42;107567;1292;22226;-44
2023/09/26 05:43:20;;;;;;;16.80;9.80;;;;;;;17.33;100.00;100117.25;107569;1292;22488;-47
2023/09/26 05:45:49;;;;;;;15.20;8.90;;;;;;;17.35;100.00;100118.86;107566;1307;22281;-42
2023/09/26 05:48:14;;;;;;;28.40;9.80;;;;;;;17.37;100.00;100116.58;107569;1292;23036;-48
2023/09/26 05:50:40;;;;;;;18.20;10.00;;;;;;;17.39;100.00;100117.48;107580;1311;22251;-43
2023/09/26 05:53:05;;;;;;;21.60;10.80;;;;;;;17.41;99.84;100116.09;107572;1311;22403;-48
2023/09/26 05:55:31;;;;;;;19.40;10.30;;;;;;;17.42;99.66;100117.77;107584;1288;22635;-45
2023/09/26 05:57:56;;;;;;;16.30;10.80;;;;;;;17.44;99.57;100119.94;107597;1292;22267;-49
2023/09/26 06:00:22;;;;;;;19.10;10.40;;;;;;;17.49;99.56;100128.19;107577;1289;22417;-46
2023/09/26 06:02:47;;;;;;;27.10;10.50;;;;;;;17.51;99.70;100125.55;107578;1311;22462;-50
2023/09/26 06:05:13;;;;;;;18.80;10.60;;;;;;;17.53;99.71;100130.90;107596;1292;22227;-46
2023/09/26 06:07:39;;;;;;;25.10;11.00;;;;;;;17.53;99.83;100132.80;107557;1289;22908;-47
2023/09/26 06:10:05;;;;;;;18.30;10.70;;;;;;;17.54;99.76;100130.62;107607;1292;22478;-47
2023/09/26 06:12:31;;;;;;;21.40;10.60;;;;;;;17.54;99.63;100131.33;107601;1310;22263;-43
2023/09/26 06:14:56;;;;;;;33.10;11.30;;;;;;;17.55;99.52;100131.25;107767;1308;23037;-45
2023/09/26 06:17:22;;;;;;;28.90;10.70;;;;;;;17.56;99.60;100131.56;107782;1308;22231;-49
2023/09/26 06:19:47;;;;;;;31.30;11.60;;;;;;;17.56;99.48;100131.17;107782;1292;23140;-43
2023/09/26 06:22:16;;;;;;;36.50;11.70;;;;;;;17.57;99.22;100125.61;107774;1292;22493;-47
2023/09/26 06:24:42;;;;;;;31.50;11.80;;;;;;;17.60;99.51;100123.66;107790;1289;22231;-44
2023/09/26 06:27:07;;;;;;;18.30;11.10;;;;;;;17.62;99.29;100124.70;107823;1298;22266;-42
2023/09/26 06:29:32;;;;;;;23.60;11.10;;;;;;;17.68;99.07;100117.96;107789;1308;23194;-45
2023/09/26 06:31:58;;;;;;;26.00;10.90;;;;;;;17.72;99.05;100117.45;107794;1289;23145;-49
2023/09/26 06:34:23;;;;;;;18.80;11.20;;;;;;;17.76;98.81;100118.91;107810;1308;22448;-49
2023/09/26 06:36:52;;;;;;;20.00;11.60;;;;;;;17.79;98.84;100123.84;107797;1308;22387;-48
2023/09/26 06:39:17;;;;;;;22.60;11.30;;;;;;;17.81;98.96;100128.55;107797;1291;22438;-46
2023/09/26 06:41:43;;;;;;;20.90;10.30;;;;;;;17.83;98.83;100128.73;107813;1300;22380;-48
2023/09/26 06:44:09;;;;;;;18.80;10.70;;;;;;;17.85;98.60;100130.76;107813;1305;22160;-46
2023/09/26 06:46:35;;;;;;;19.30;11.50;;;;;;;17.87;98.58;100130.65;107809;1308;23090;-43
2023/09/26 06:49:00;;;;;;;19.60;10.80;;;;;;;17.88;98.28;100130.20;107810;1285;23102;-47
2023/09/26 06:51:26;;;;;;;19.50;11.10;;;;;;;17.89;97.91;100128.67;107798;1305;22466;-43
2023/09/26 06:53:51;;;;;;;26.90;11.00;;;;;;;17.90;97.92;100134.28;107803;1308;22221;-45
2023/09/26 06:56:16;;;;;;;20.00;11.10;;;;;;;17.90;97.86;100135.34;107783;1308;22237;-45
2023/09/26 06:58:41;;;;;;;20.70;11.30;;;;;;;17.94;97.79;100134.90;107833;1299;22218;-43
2023/09/26 07:01:14;;;;;;;21.80;11.90;;;;;;;17.96;97.91;100134.19;107814;1292;22282;-42
2023/09/26 07:03:39;;;;;;;26.00;11.20;;;;;;;17.98;97.88;100133.55;107815;1308;22236;-44
2023/09/26 07:06:13;;;;;;;19.20;11.80;;;;;;;18.00;97.94;100134.09;107813;1308;23066;-44
2023/09/26 07:08:40;;;;;;;19.00;11.70;;;;;;;18.00;97.92;100134.94;107811;1289;22223;-45
2023/09/26 07:11:06;;;;;;;;;;;;;;;18.02;97.80;100137.10;107815;1308;22458;-43
2023/09/26 07:13:34;;;;;;;23.60;11.40;;;;;;;18.03;97.60;100136.84;107794;1299;22900;-45
2023/09/26 07:16:01;;;;;;;19.90;10.90;;;;;;;18.04;97.33;100134.51;107810;1289;22264;-47
2023/09/26 07:18:26;;;;;;;22.00;11.60;;;;;;;18.07;97.51;100135.39;107832;1286;22409;-49
2023/09/26 07:20:52;;;;;;;18.20;10.90;;;;;;;18.07;97.16;100136.23;107788;1302;23310;-44
2023/09/26 07:23:17;;;;;;;21.10;11.90;;;;;;;18.08;96.96;100137.77;107811;1298;22222;-50
2023/09/26 07:25:43;;;;;;;17.20;11.60;;;;;;;18.10;96.95;100139.20;107803;1285;22251;-45
2023/09/26 07:28:08;;;;;;;16.90;11.00;;;;;;;18.13;97.08;100137.39;107806;1308;23192;-49
2023/09/26 07:30:34;;;;;;;16.80;11.30;;;;;;;18.14;96.86;100136.43;107819;1292;22823;-46
2023/09/26 07:32:59;;;;;;;18.50;11.30;;;;;;;18.15;96.62;100137.78;107820;1308;22451;-46
2023/09/26 07:35:27;;;;;;;25.50;13.10;;;;;;;18.18;96.49;100139.71;107803;1309;22249;-50
2023/09/26 07:37:53;;;;;;;20.10;12.10;;;;;;;18.20;96.52;100144.16;107808;1290;23087;-50
2023/09/26 07:40:18;;;;;;;27.90;12.20;;;;;;;18.22;96.75;100144.55;107804;1289;23190;-44
2023/09/26 07:42:44;;;;;;;28.50;11.70;;;;;;;18.24;96.54;100144.77;107791;1290;22221;-43
2023/09/26 07:45:10;;;;;;;22.20;11.30;;;;;;;18.26;96.28;100143.55;107732;1292;22224;-43
2023/09/26 07:47:35;;;;;;;20.30;12.00;;;;;;;18.27;96.38;100139.91;107799;1291;22252;-42
2023/09/26 07:50:01;;;;;;;15.90;11.60;;;;;;;18.31;96.33;100142.83;107753;1309;22246;-42
2023/09/26 07:52:27;;;;;;;19.80;11.70;;;;;;;18.34;96.27;100141.37;107790;1289;22354;-43
2023/09/26 07:54:52;;;;;;;23.60;11.60;;;;;;;18.38;96.41;100141.95;107803;1295;22937;-42
2023/09/26 07:57:19;;;;;;;20.50;11.80;;;;;;;18.42;96.43;100145.53;107728;1286;22228;-42
2023/09/26 07:59:45;;;;;;;21.10;12.10;;;;;;;18.44;96.56;100144.71;107731;1299;22345;-43
2023/09/26 08:02:10;;;;;;;22.10;12.20;;;;;;;18.46;96.01;100146.70;107794;1298;22455;-43
2023/09/26 08:04:35;;;;;;;28.30;12.70;;;;;;;18.47;95.43;100146.98;107777;1308;22219;-43
2023/09/26 08:07:00;;;;;;;21.00;13.30;;;;;;;18.48;95.39;100148.70;107805;1308;22221;-42
2023/09/26 08:09:26;;;;;;;24.80;13.60;;;;;;;18.50;95.18;100147.83;107816;1295;23401;-42
2023/09/26 08:11:51;;;;;;;30.40;13.30;;;;;;;18.53;95.55;100144.55;107815;1299;22218;-43
2023/09/26 08:14:17;;;;;;;25.00;13.60;;;;;;;18.57;94.94;100146.61;107818;1308;22245;-43
2023/09/26 08:16:43;;;;;;;20.00;12.80;;;;;;;18.57;94.42;100145.73;107804;1305;22230;-43
2023/09/26 08:19:08;;;;;;;24.30;13.50;;;;;;;18.58;94.63;100145.29;107808;1308;22223;-43
2023/09/26 08:21:33;;;;;;;26.00;13.70;;;;;;;18.58;94.42;100145.80;107768;1289;23087;-43
2023/09/26 08:23:59;;;;;;;20.50;13.10;;;;;;;18.57;94.49;100148.89;107794;1289;22956;-43
2023/09/26 08:26:24;;;;;;;28.40;14.10;;;;;;;18.56;94.17;100151.43;107787;1289;22298;-43
2023/09/26 08:28:50;;;;;;;23.50;13.60;;;;;;;18.58;94.56;100157.38;107809;1308;23001;-43
2023/09/26 08:31:15;;;;;;;27.80;14.10;;;;;;;18.60;94.50;100154.55;107823;1301;22236;-44
2023/09/26 08:33:44;;;;;;;28.30;14.50;;;;;;;18.61;94.31;100156.74;107787;1305;22931;-43
2023/09/26 08:36:20;;;;;;;23.00;13.30;;;;;;;18.61;94.01;100157.46;107802;1308;22852;-43
2023/09/26 08:38:47;;;;;;;25.90;14.20;;;;;;;18.61;93.93;100154.61;107824;1289;22285;-43
2023/09/26 08:41:15;;;;;;;30.50;14.20;;;;;;;18.62;94.06;100151.86;107808;1289;22234;-43
2023/09/26 08:43:41;;;;;;;29.50;14.50;;;;;;;18.64;93.88;100152.64;107793;1308;22248;-43
2023/09/26 08:46:07;;;;;;;33.80;14.30;;;;;;;18.65;93.49;100149.36;107827;1289;22207;-40
2023/09/26 08:48:33;;;;;;;27.50;14.00;;;;;;;18.66;93.51;100150.52;107817;1308;22701;-42
2023/09/26 08:50:59;;;;;;;30.70;14.60;;;;;;;18.68;93.43;100149.69;107791;1308;22994;-41
2023/09/26 08:53:24;;;;;;;35.40;15.10;;;;;;;18.69;92.98;100152.60;107718;1289;22246;-42
2023/09/26 08:55:50;;;;;;;26.90;13.90;;;;;;;18.68;92.58;100149.50;107751;1308;23040;-42
2023/09/26 08:58:16;;;;;;;21.80;13.60;;;;;;;18.67;92.27;100145.61;107808;1308;23186;-43
2023/09/26 09:00:42;;;;;;;23.50;13.80;;;;;;;18.70;92.63;100148.29;107804;1290;22234;-42
2023/09/26 09:03:07;;;;;;;30.20;13.20;;;;;;;18.71;92.18;100145.17;107837;1308;22725;-42
2023/09/26 09:05:33;;;;;;;21.50;13.20;;;;;;;18.72;91.89;100143.88;107819;1308;22196;-42
2023/09/26 09:07:58;;;;;;;28.90;14.60;;;;;;;18.73;91.77;100144.50;107802;1308;22259;-42
2023/09/26 09:10:23;;;;;;;30.90;15.00;;;;;;;18.73;91.68;100146.09;107787;1285;23120;-43
2023/09/26 09:13:02;;;;;;;31.80;15.40;;;;;;;18.72;91.49;100145.27;107823;1308;22245;-42
2023/09/26 09:15:29;;;;;;;27.20;16.00;;;;;;;18.74;91.76;100145.11;107763;1298;22210;-41
2023/09/26 09:17:55;;;;;;;30.60;14.90;;;;;;;18.76;91.19;100146.58;107768;1302;22839;-42
2023/09/26 09:20:40;;;;;;;26.00;15.60;;;;;;;18.75;91.31;100144.33;107794;1299;23082;-46
2023/09/26 09:23:06;;;;;;;26.40;14.60;;;;;;;18.75;91.06;100141.69;107849;1304;22240;-43
2023/09/26 09:25:34;;;;;;;32.80;15.70;;;;;;;18.78;91.10;100140.73;107820;1289;22289;-43
2023/09/26 09:28:00;;;;;;;35.00;16.80;;;;;;;18.83;91.06;100142.56;107833;1308;22118;-46
2023/09/26 09:30:26;;;;;;;26.90;15.10;;;;;;;18.86;90.69;100141.95;107789;1298;22382;-40
2023/09/26 09:32:52;;;;;;;26.50;15.40;;;;;;;18.88;90.55;100143.55;107694;1309;22912;-45
2023/09/26 09:35:18;;;;;;;30.60;15.70;;;;;;;18.93;90.94;100142.86;107801;1292;22248;-45
2023/09/26 09:37:45;;;;;;;30.70;15.70;;;;;;;18.96;90.84;100140.46;107804;1306;22391;-44
2023/09/26 09:40:15;;;;;;;26.00;15.50;;;;;;;19.01;91.15;100140.98;107795;1302;22535;-43
2023/09/26 09:42:41;;;;;;;22.80;14.80;;;;;;;19.07;91.16;100135.40;107795;1308;22213;-44
2023/09/26 09:45:08;;;;;;;30.30;16.00;;;;;;;19.09;90.48;100137.66;107839;1289;22242;-41
2023/09/26 09:47:36;;;;;;;35.60;16.20;;;;;;;19.09;89.97;100141.92;107824;1292;22904;-43
2023/09/26 09:50:02;;;;;;;23.80;14.80;;;;;;;19.11;90.08;100139.14;107812;1308;22221;-46
2023/09/26 09:52:33;;;;;;;26.20;15.00;;;;;;;19.13;89.87;100139.00;107830;1289;22241;-44
2023/09/26 09:55:03;;;;;;;27.50;14.70;;;;;;;19.12;89.37;100137.30;107808;1289;22262;-43
2023/09/26 09:57:33;;;;;;;27.80;14.10;;;;;;;19.12;89.24;100137.25;107799;1308;22428;-42
2023/09/26 10:00:00;;;;;;;27.70;14.70;;;;;;;19.15;89.48;100137.35;107797;1286;22231;-44
2023/09/26 10:02:26;;;;;;;23.30;14.90;;;;;;;19.23;89.55;100130.06;107810;1308;22244;-41
2023/09/26 10:04:55;;;;;;;25.50;13.90;;;;;;;19.29;89.46;100126.94;107787;1308;22233;-41
2023/09/26 10:07:25;;;;;;;25.10;13.40;;;;;;;19.32;89.18;100125.81;107805;1289;22304;-43
2023/09/26 10:09:52;;;;;;;22.00;14.50;;;;;;;19.33;88.94;100122.30;107830;1289;22722;-42
2023/09/26 10:12:18;;;;;;;;;;;;;;;19.37;89.11;100123.43;107810;1289;23051;-43
2023/09/26 10:14:44;;;;;;;38.70;17.40;;;;;;;19.39;89.15;100122.36;107810;1298;22908;-45
2023/09/26 10:17:10;;;;;;;27.40;14.60;;;;;;;19.40;88.97;100122.98;107811;1302;22387;-43
2023/09/26 10:19:35;;;;;;;28.70;14.40;;;;;;;19.41;88.67;100123.10;107841;1286;22856;-44
2023/09/26 10:22:20;;;;;;;32.50;14.50;;;;;;;19.43;88.48;100118.52;107775;1300;22417;-44
2023/09/26 10:24:53;;;;;;;27.50;13.30;;;;;;;19.46;88.53;100121.86;107793;1308;22313;-41
2023/09/26 10:27:35;;;;;;;21.90;13.70;;;;;;;19.49;88.68;100116.77;107822;1289;22463;-41
2023/09/26 10:30:01;;;;;;;24.20;13.90;;;;;;;19.52;88.32;100119.05;107797;1308;22988;-45
2023/09/26 10:32:33;;;;;;;31.10;14.40;;;;;;;19.53;88.13;100118.39;107784;1289;22421;-43
2023/09/26 10:35:01;;;;;;;24.30;13.70;;;;;;;19.53;87.77;100117.36;107809;1305;23015;-43
2023/09/26 10:37:27;;;;;;;24.40;13.80;;;;;;;19.57;88.00;100115.30;107790;1286;22347;-45
2023/09/26 10:39:53;;;;;;;25.50;13.40;;;;;;;19.62;87.75;100113.14;107803;1289;22392;-41
2023/09/26 10:42:23;;;;;;;20.80;13.00;;;;;;;19.68;88.02;100109.02;107789;1308;22355;-46
2023/09/26 10:44:51;;;;;;;20.90;11.90;;;;;;;19.74;87.73;100106.30;107792;1302;23136;-43
2023/09/26 10:47:20;;;;;;;22.10;11.90;;;;;;;19.77;86.98;100107.13;107810;1290;22546;-43
2023/09/26 10:49:45;;;;;;;27.30;12.30;;;;;;;19.79;86.39;100106.11;107793;1289;23056;-43
2023/09/26 10:52:12;;;;;;;20.80;11.80;;;;;;;19.82;85.80;100107.83;107756;1289;22249;-41
2023/09/26 10:54:39;;;;;;;19.20;11.30;;;;;;;19.86;85.68;100106.20;107816;1302;23003;-43
2023/09/26 10:57:05;;;;;;;18.90;11.50;;;;;;;19.88;85.30;100103.52;107787;1289;22413;-40
2023/09/26 10:59:32;;;;;;;22.30;12.20;;;;;;;19.92;85.47;100099.42;107778;1288;23154;-41
2023/09/26 11:01:59;;;;;;;17.50;11.70;;;;;;;19.97;85.54;100101.24;107804;1302;22484;-43
2023/09/26 11:04:29;;;;;;;18.90;10.70;;;;;;;20.00;85.22;100097.77;107820;1285;22454;-47
2023/09/26 11:06:56;;;;;;;23.80;10.80;;;;;;;20.02;85.12;100098.36;107743;1289;23434;-42
2023/09/26 11:09:22;;;;;;;20.30;11.30;;;;;;;20.04;85.15;100097.48;107797;1308;22359;-44
2023/09/26 11:11:47;;;;;;;15.40;10.40;;;;;;;20.07;85.10;100098.08;107817;1289;23024;-43
2023/09/26 11:14:13;;;;;;;16.80;10.40;;;;;;;20.06;84.46;100097.83;107806;1308;22329;-42
2023/09/26 11:16:41;;;;;;;18.70;10.50;;;;;;;20.07;84.95;100097.98;107800;1295;22233;-44
2023/09/26 11:19:09;;;;;;;21.80;10.80;;;;;;;20.07;84.80;100098.62;107817;1305;22970;-42
2023/09/26 11:21:34;;;;;;;18.70;10.30;;;;;;;20.05;84.47;100096.99;107854;1290;23400;-41
2023/09/26 11:24:00;;;;;;;17.10;10.60;;;;;;;20.01;84.13;100095.40;107835;1289;22231;-44
2023/09/26 11:26:25;;;;;;;19.10;11.30;;;;;;;20.00;84.17;100092.42;107851;1301;22270;-44
2023/09/26 11:28:51;;;;;;;18.50;10.70;;;;;;;20.00;84.46;100092.60;107866;1302;22274;-43
2023/09/26 11:31:17;;;;;;;16.30;10.30;;;;;;;19.99;84.25;100092.02;107647;1304;22450;-42
2023/09/26 11:33:43;;;;;;;18.10;11.00;;;;;;;19.96;84.12;100092.61;107867;1299;22227;-45
2023/09/26 11:36:10;;;;;;;30.10;16.90;;;;;;;19.96;84.64;100091.93;107871;1286;22233;-45
2023/09/26 11:38:46;;;;;;;20.60;11.70;;;;;;;19.95;84.64;100094.99;107876;1308;22253;-41
2023/09/26 11:41:11;;;;;;;17.80;11.40;;;;;;;19.92;84.43;100095.42;107879;1289;23083;-43
2023/09/26 11:43:41;;;;;;;22.30;11.40;;;;;;;19.90;84.41;100090.39;107839;1302;22247;-48
2023/09/26 11:46:06;;;;;;;16.10;11.10;;;;;;;19.89;84.61;100091.89;107881;1302;22095;-43
2023/09/26 11:48:31;;;;;;;21.80;10.40;;;;;;;19.88;84.58;100090.88;107871;1301;23224;-42
2023/09/26 11:50:57;;;;;;;24.80;12.00;;;;;;;19.90;84.72;100088.45;107842;1308;22254;-42
2023/09/26 11:53:25;;;;;;;18.90;10.90;;;;;;;19.89;84.42;100086.41;107875;1289;22420;-44
2023/09/26 11:55:53;;;;;;;20.20;10.50;;;;;;;19.87;84.63;100083.85;107846;1308;22228;-42
2023/09/26 11:58:18;;;;;;;17.30;10.60;;;;;;;19.87;84.73;100082.81;107798;1302;22992;-45
2023/09/26 12:00:43;;;;;;;24.40;11.70;;;;;;;19.85;84.71;100081.75;107829;1289;22242;-43
2023/09/26 12:03:09;;;;;;;17.30;11.00;;;;;;;19.84;84.93;100081.78;107876;1286;22225;-47
2023/09/26 12:05:35;;;;;;;18.70;10.90;;;;;;;19.84;84.85;100082.55;107876;1308;23169;-50
2023/09/26 12:08:01;;;;;;;24.10;11.40;;;;;;;19.82;85.01;100082.18;107857;1288;23038;-45
2023/09/26 12:10:26;;;;;;;24.80;11.40;;;;;;;19.81;84.94;100080.85;107872;1302;22322;-47
2023/09/26 12:12:53;;;;;;;16.80;11.10;;;;;;;19.80;84.73;100078.91;107884;1308;22222;-47
2023/09/26 12:15:27;;;;;;;18.70;11.10;;;;;;;19.80;84.43;100075.56;107876;1301;22316;-48
2023/09/26 12:17:54;;;;;;;20.30;11.60;;;;;;;19.79;84.23;100072.65;107885;1289;22406;-47
2023/09/26 12:20:28;;;;;;;20.80;11.90;;;;;;;19.81;84.65;100070.32;107874;1286;23420;-48
2023/09/26 12:22:55;;;;;;;27.10;11.60;;;;;;;19.82;84.57;100070.23;107841;1288;22400;-47
2023/09/26 12:25:22;;;;;;;20.70;12.20;;;;;;;19.85;84.79;100068.92;107874;1301;23074;-50
2023/09/26 12:27:49;;;;;;;19.40;11.70;;;;;;;19.85;84.56;100065.89;107845;1289;22230;-45
2023/09/26 12:30:14;;;;;;;18.90;11.70;;;;;;;19.86;84.56;100065.65;107858;1302;22354;-47
2023/09/26 12:32:42;;;;;;;22.70;11.80;;;;;;;19.88;84.64;100068.30;107885;1302;22413;-43
2023/09/26 12:35:08;;;;;;;19.50;11.90;;;;;;;19.88;84.55;100068.48;107846;1308;22498;-51
2023/09/26 12:37:35;;;;;;;22.20;12.40;;;;;;;19.89;84.86;100064.65;107893;1301;22355;-49
2023/09/26 12:40:01;;;;;;;18.60;11.80;;;;;;;19.90;84.27;100061.40;107859;1308;22239;-49
2023/09/26 12:42:26;;;;;;;22.50;11.70;;;;;;;19.92;84.46;100059.06;107835;1305;22402;-45
2023/09/26 12:44:52;;;;;;;17.00;11.10;;;;;;;19.96;84.24;100055.08;107881;1285;22416;-46
2023/09/26 12:47:17;;;;;;;28.20;13.00;;;;;;;19.98;83.68;100053.12;107881;1289;22214;-50
2023/09/26 12:49:46;;;;;;;22.40;12.60;;;;;;;20.03;83.59;100051.11;107871;1308;22473;-47
2023/09/26 12:52:13;;;;;;;21.40;12.30;;;;;;;20.10;83.91;100049.60;107853;1305;22217;-46
2023/09/26 12:54:38;;;;;;;20.10;11.90;;;;;;;20.17;83.57;100049.72;107851;1285;22261;-48
2023/09/26 12:57:05;;;;;;;24.70;12.20;;;;;;;20.26;83.13;100044.34;107820;1289;22234;-52
2023/09/26 12:59:31;;;;;;;127.20;16.20;;;;;;;20.31;82.75;100045.19;107850;1286;22696;-48
2023/09/26 13:01:56;;;;;;;21.20;12.30;;;;;;;20.34;82.07;100043.38;107845;1308;22260;-49
2023/09/26 13:04:23;;;;;;;35.60;13.00;;;;;;;20.34;81.86;100039.11;107861;1308;22213;-45
2023/09/26 13:06:48;;;;;;;24.90;11.40;;;;;;;20.35;81.79;100038.66;107872;1285;22316;-49
2023/09/26 13:09:14;;;;;;;19.90;11.60;;;;;;;20.38;81.82;100036.63;107884;1308;22253;-52
2023/09/26 13:11:40;;;;;;;28.00;12.80;;;;;;;20.42;82.27;100030.95;107876;1289;22987;-52
2023/09/26 13:14:05;;;;;;;21.10;11.90;;;;;;;20.48;82.61;100034.86;107869;1285;22245;-45
2023/09/26 13:16:31;;;;;;;23.70;12.20;;;;;;;20.54;82.49;100030.64;107884;1308;23010;-49
2023/09/26 13:18:57;;;;;;;26.40;12.20;;;;;;;20.57;82.27;100027.85;107842;1301;22514;-48
2023/09/26 13:21:22;;;;;;;21.80;12.10;;;;;;;20.59;82.08;100030.00;107899;1286;23085;-49
2023/09/26 13:23:47;;;;;;;23.30;12.40;;;;;;;20.61;82.47;100026.67;107871;1308;22366;-53
2023/09/26 13:26:13;;;;;;;24.10;12.90;;;;;;;20.67;82.48;100027.54;107834;1302;22370;-49
2023/09/26 13:28:39;;;;;;;25.70;12.70;;;;;;;20.72;82.20;100026.42;107877;1285;22238;-46
2023/09/26 13:31:04;;;;;;;23.70;12.70;;;;;;;20.77;82.33;100028.55;107865;1289;22231;-50
2023/09/26 13:33:29;;;;;;;25.90;13.50;;;;;;;20.78;81.80;100024.52;107843;1301;22370;-50
2023/09/26 13:35:55;;;;;;;30.90;15.40;;;;;;;20.78;81.38;100028.80;107866;1301;22231;-51
2023/09/26 13:38:20;;;;;;;30.50;13.70;;;;;;;20.79;81.51;100025.48;107851;1305;23615;-50
2023/09/26 13:40:46;;;;;;;28.30;13.10;;;;;;;20.82;81.95;100024.30;107857;1296;22289;-49
2023/09/26 13:43:11;;;;;;;25.80;14.70;;;;;;;20.83;81.63;100022.96;107849;1308;22412;-50
2023/09/26 13:45:37;;;;;;;28.10;12.60;;;;;;;20.84;81.01;100022.42;107866;1288;22408;-52
2023/09/26 13:48:02;;;;;;;27.90;12.70;;;;;;;20.84;81.27;100017.20;107859;1289;22445;-45
2023/09/26 13:50:28;;;;;;;28.50;14.80;;;;;;;20.84;81.14;100013.63;107872;1288;22256;-46
2023/09/26 13:52:53;;;;;;;30.30;14.00;;;;;;;20.85;80.95;100011.02;107857;1305;22387;-47
2023/09/26 13:55:20;;;;;;;23.80;13.60;;;;;;;20.87;80.57;100007.17;107876;1302;22226;-48
2023/09/26 13:57:46;;;;;;;22.10;13.60;;;;;;;20.87;80.26;100004.30;107875;1288;22258;-43
2023/09/26 14:00:12;;;;;;;23.80;13.30;;;;;;;20.89;80.10;100004.66;107840;1308;22246;-49
2023/09/26 14:02:37;;;;;;;25.30;12.80;;;;;;;20.92;80.29;100000.83;107878;1304;22943;-47
2023/09/26 14:05:04;;;;;;;33.70;14.00;;;;;;;20.96;80.12;100000.34;107872;1288;22454;-51
2023/09/26 14:07:33;;;;;;;25.00;13.30;;;;;;;20.99;79.85;99999.36;107879;1308;22424;-50
2023/09/26 14:09:58;;;;;;;26.40;13.00;;;;;;;20.99;79.82;100002.52;107868;1289;22527;-51
2023/09/26 14:12:23;;;;;;;24.60;14.90;;;;;;;20.96;79.67;100004.61;107834;1301;22978;-49
2023/09/26 14:14:49;;;;;;;34.10;14.50;;;;;;;20.91;79.75;100008.25;107865;1285;22454;-50
2023/09/26 14:17:14;;;;;;;21.00;13.40;;;;;;;20.84;79.40;100006.90;107855;1289;22397;-48
2023/09/26 14:19:39;;;;;;;23.90;13.40;;;;;;;20.75;79.23;100004.23;107871;1288;22241;-48
2023/09/26 14:22:05;;;;;;;23.00;14.00;;;;;;;20.74;79.22;100004.59;107894;1285;22236;-48
2023/09/26 14:24:30;;;;;;;37.40;14.00;;;;;;;20.79;79.47;100000.40;107889;1308;22480;-47